createdAt,value
2019-02-12T00:00:02.644Z,1016.15
2019-02-12T00:01:02.605Z,1016.19
2019-02-12T00:02:02.679Z,1016.22
2019-02-12T00:03:02.584Z,1016.20
2019-02-12T00:04:02.653Z,1016.18
2019-02-12T00:05:02.597Z,1016.19
2019-02-12T00:06:02.661Z,1016.17
2019-02-12T00:07:02.609Z,1016.15
2019-02-12T00:08:02.660Z,1016.11
2019-02-12T00:09:02.659Z,1016.15
2019-02-12T00:10:02.605Z,1016.13
2019-02-12T00:11:02.639Z,1016.13
2019-02-12T00:12:02.522Z,1016.13
2019-02-12T00:13:02.648Z,1016.11
2019-02-12T00:14:02.651Z,1016.12
2019-02-12T00:15:02.638Z,1016.16
2019-02-12T00:16:02.651Z,1016.12
2019-02-12T00:17:02.534Z,1016.10
2019-02-12T00:18:02.600Z,1016.15
2019-02-12T00:19:02.640Z,1016.14
2019-02-12T00:20:02.554Z,1016.11
2019-02-12T00:21:08.950Z,1016.08
2019-02-12T00:22:02.663Z,1016.13
2019-02-12T00:23:02.586Z,1016.12
2019-02-12T00:24:02.545Z,1016.13
2019-02-12T00:25:02.660Z,1016.21
2019-02-12T00:26:02.589Z,1016.25
2019-02-12T00:27:02.715Z,1016.20
2019-02-12T00:28:02.661Z,1016.20
2019-02-12T00:29:02.588Z,1016.18
2019-02-12T00:30:02.662Z,1016.18
2019-02-12T00:31:02.623Z,1016.24
2019-02-12T00:32:02.728Z,1016.29
2019-02-12T00:33:02.605Z,1016.37
2019-02-12T00:34:02.622Z,1016.31
2019-02-12T00:35:02.610Z,1016.35
2019-02-12T00:36:02.608Z,1016.35
2019-02-12T00:37:02.649Z,1016.37
2019-02-12T00:38:02.683Z,1016.37
2019-02-12T00:39:02.685Z,1016.38
2019-02-12T00:40:02.607Z,1016.45
2019-02-12T00:41:02.552Z,1016.44
2019-02-12T00:42:02.669Z,1016.46
2019-02-12T00:43:02.595Z,1016.51
2019-02-12T00:44:02.588Z,1016.51
2019-02-12T00:45:02.677Z,1016.48
2019-02-12T00:46:02.600Z,1016.47
2019-02-12T00:47:02.675Z,1016.42
2019-02-12T00:48:02.675Z,1016.41
2019-02-12T00:49:02.675Z,1016.44
2019-02-12T00:50:02.701Z,1016.42
2019-02-12T00:51:02.554Z,1016.46
2019-02-12T00:52:02.583Z,1016.49
2019-02-12T00:53:02.611Z,1016.47
2019-02-12T00:54:02.624Z,1016.44
2019-02-12T00:55:02.577Z,1016.44
2019-02-12T00:56:02.620Z,1016.43
2019-02-12T00:57:02.560Z,1016.38
2019-02-12T00:58:02.676Z,1016.43
2019-02-12T00:59:02.558Z,1016.39
2019-02-12T01:00:02.582Z,1016.40
2019-02-12T01:01:02.723Z,1016.39
2019-02-12T01:02:02.716Z,1016.38
2019-02-12T01:03:02.639Z,1016.36
2019-02-12T01:04:02.700Z,1016.36
2019-02-12T01:05:04.370Z,1016.39
2019-02-12T01:06:02.704Z,1016.39
2019-02-12T01:07:02.624Z,1016.42
2019-02-12T01:08:02.631Z,1016.40
2019-02-12T01:09:02.702Z,1016.41
2019-02-12T01:10:02.705Z,1016.50
2019-02-12T01:11:02.709Z,1016.45
2019-02-12T01:12:02.704Z,1016.50
2019-02-12T01:13:02.728Z,1016.57
2019-02-12T01:14:02.631Z,1016.55
2019-02-12T01:15:02.638Z,1016.55
2019-02-12T01:16:02.722Z,1016.54
2019-02-12T01:17:02.632Z,1016.54
2019-02-12T01:18:02.713Z,1016.52
2019-02-12T01:19:02.646Z,1016.48
2019-02-12T01:20:02.705Z,1016.47
2019-02-12T01:21:02.703Z,1016.44
2019-02-12T01:22:02.623Z,1016.49
2019-02-12T01:23:02.636Z,1016.48
2019-02-12T01:24:02.704Z,1016.50
2019-02-12T01:25:02.703Z,1016.50
2019-02-12T01:26:02.718Z,1016.51
2019-02-12T01:27:02.712Z,1016.56
2019-02-12T01:28:02.781Z,1016.50
2019-02-12T01:29:02.716Z,1016.51
2019-02-12T01:30:02.617Z,1016.53
2019-02-12T01:31:02.653Z,1016.52
2019-02-12T01:32:02.635Z,1016.53
2019-02-12T01:33:02.666Z,1016.61
2019-02-12T01:34:02.684Z,1016.56
2019-02-12T01:35:02.636Z,1016.58
2019-02-12T01:36:02.605Z,1016.63
2019-02-12T01:37:02.638Z,1016.63
2019-02-12T01:38:02.670Z,1016.66
2019-02-12T01:39:02.601Z,1016.67
2019-02-12T01:40:02.577Z,1016.66
2019-02-12T01:41:02.729Z,1016.67
2019-02-12T01:42:02.730Z,1016.64
2019-02-12T01:43:02.726Z,1016.65
2019-02-12T01:44:02.654Z,1016.62
2019-02-12T01:45:02.753Z,1016.66
2019-02-12T01:46:02.727Z,1016.61
2019-02-12T01:47:02.728Z,1016.64
2019-02-12T01:48:02.735Z,1016.58
2019-02-12T01:49:02.656Z,1016.56
2019-02-12T01:50:02.732Z,1016.56
2019-02-12T01:51:02.661Z,1016.55
2019-02-12T01:52:02.657Z,1016.56
2019-02-12T01:53:02.734Z,1016.54
2019-02-12T01:54:02.666Z,1016.49
2019-02-12T01:55:02.793Z,1016.52
2019-02-12T01:56:02.665Z,1016.57
2019-02-12T01:57:02.672Z,1016.53
2019-02-12T01:58:02.692Z,1016.59
2019-02-12T01:59:02.673Z,1016.64
2019-02-12T02:00:02.673Z,1016.61
2019-02-12T02:01:02.667Z,1016.59
2019-02-12T02:02:02.673Z,1016.56
2019-02-12T02:03:02.671Z,1016.63
2019-02-12T02:04:02.723Z,1016.66
2019-02-12T02:05:02.739Z,1016.72
2019-02-12T02:06:02.669Z,1016.75
2019-02-12T02:07:02.666Z,1016.70
2019-02-12T02:08:02.745Z,1016.73
2019-02-12T02:09:02.753Z,1016.71
2019-02-12T02:10:02.673Z,1016.73
2019-02-12T02:11:02.736Z,1016.76
2019-02-12T02:12:02.659Z,1016.74
2019-02-12T02:13:02.658Z,1016.78
2019-02-12T02:14:02.669Z,1016.73
2019-02-12T02:15:02.737Z,1016.75
2019-02-12T02:16:02.665Z,1016.77
2019-02-12T02:17:02.742Z,1016.80
2019-02-12T02:18:02.697Z,1016.76
2019-02-12T02:19:02.744Z,1016.78
2019-02-12T02:20:02.652Z,1016.79
2019-02-12T02:21:02.682Z,1016.79
2019-02-12T02:22:02.686Z,1016.79
2019-02-12T02:23:02.647Z,1016.75
2019-02-12T02:24:02.683Z,1016.74
2019-02-12T02:25:02.759Z,1016.77
2019-02-12T02:26:02.757Z,1016.83
2019-02-12T02:27:02.765Z,1016.86
2019-02-12T02:28:02.760Z,1016.89
2019-02-12T02:29:02.688Z,1016.90
2019-02-12T02:30:02.711Z,1016.85
2019-02-12T02:31:02.692Z,1016.87
2019-02-12T02:32:02.764Z,1016.86
2019-02-12T02:33:02.707Z,1016.85
2019-02-12T02:34:02.687Z,1016.91
2019-02-12T02:35:02.766Z,1016.87
2019-02-12T02:36:02.696Z,1016.87
2019-02-12T02:37:02.693Z,1016.90
2019-02-12T02:38:02.761Z,1016.93
2019-02-12T02:39:02.696Z,1016.96
2019-02-12T02:40:02.699Z,1017.01
2019-02-12T02:41:02.769Z,1016.99
2019-02-12T02:42:02.707Z,1016.97
2019-02-12T02:43:02.692Z,1016.99
2019-02-12T02:44:02.724Z,1017.00
2019-02-12T02:45:02.738Z,1016.99
2019-02-12T02:46:02.626Z,1017.01
2019-02-12T02:47:02.745Z,1016.93
2019-02-12T02:48:02.628Z,1016.98
2019-02-12T02:49:02.630Z,1016.96
2019-02-12T02:50:03.437Z,1016.96
2019-02-12T02:51:02.628Z,1016.94
2019-02-12T02:52:02.701Z,1016.94
2019-02-12T02:53:02.764Z,1016.95
2019-02-12T02:54:02.671Z,1017.00
2019-02-12T02:55:02.751Z,1017.00
2019-02-12T02:56:02.761Z,1017.06
2019-02-12T02:57:02.671Z,1017.12
2019-02-12T02:58:02.779Z,1017.10
2019-02-12T02:59:02.677Z,1017.12
2019-02-12T03:00:02.753Z,1017.13
2019-02-12T03:01:02.766Z,1017.13
2019-02-12T03:02:02.707Z,1017.18
2019-02-12T03:03:02.790Z,1017.13
2019-02-12T03:04:02.712Z,1017.12
2019-02-12T03:05:02.720Z,1017.13
2019-02-12T03:06:02.715Z,1017.09
2019-02-12T03:07:02.738Z,1017.11
2019-02-12T03:08:02.787Z,1017.11
2019-02-12T03:09:02.716Z,1017.16
2019-02-12T03:10:02.787Z,1017.16
2019-02-12T03:11:02.716Z,1017.13
2019-02-12T03:12:02.793Z,1017.13
2019-02-12T03:13:02.853Z,1017.22
2019-02-12T03:14:02.796Z,1017.23
2019-02-12T03:15:02.817Z,1017.24
2019-02-12T03:16:02.800Z,1017.30
2019-02-12T03:17:02.805Z,1017.29
2019-02-12T03:18:02.803Z,1017.33
2019-02-12T03:19:02.745Z,1017.27
2019-02-12T03:20:02.725Z,1017.27
2019-02-12T03:21:02.787Z,1017.19
2019-02-12T03:22:03.896Z,1017.20
2019-02-12T03:23:02.797Z,1017.22
2019-02-12T03:24:02.807Z,1017.20
2019-02-12T03:25:02.799Z,1017.19
2019-02-12T03:26:02.737Z,1017.16
2019-02-12T03:27:02.803Z,1017.18
2019-02-12T03:28:02.767Z,1017.20
2019-02-12T03:29:02.806Z,1017.21
2019-02-12T03:30:02.747Z,1017.19
2019-02-12T03:31:02.862Z,1017.17
2019-02-12T03:32:02.743Z,1017.19
2019-02-12T03:33:02.805Z,1017.19
2019-02-12T03:34:02.733Z,1017.23
2019-02-12T03:35:02.809Z,1017.24
2019-02-12T03:36:02.806Z,1017.22
2019-02-12T03:37:02.736Z,1017.24
2019-02-12T03:38:02.733Z,1017.24
2019-02-12T03:39:02.838Z,1017.21
2019-02-12T03:40:02.737Z,1017.24
2019-02-12T03:41:02.821Z,1017.21
2019-02-12T03:42:02.794Z,1017.23
2019-02-12T03:43:02.676Z,1017.21
2019-02-12T03:44:02.684Z,1017.27
2019-02-12T03:45:02.755Z,1017.26
2019-02-12T03:46:02.704Z,1017.33
2019-02-12T03:47:02.728Z,1017.30
2019-02-12T03:48:02.774Z,1017.30
2019-02-12T03:49:02.755Z,1017.29
2019-02-12T03:50:02.795Z,1017.30
2019-02-12T03:51:02.802Z,1017.26
2019-02-12T03:52:02.746Z,1017.27
2019-02-12T03:53:02.818Z,1017.29
2019-02-12T03:54:02.765Z,1017.25
2019-02-12T03:55:02.752Z,1017.27
2019-02-12T03:56:02.822Z,1017.26
2019-02-12T03:57:02.754Z,1017.24
2019-02-12T03:58:02.819Z,1017.24
2019-02-12T03:59:02.757Z,1017.28
2019-02-12T04:00:02.826Z,1017.33
2019-02-12T04:01:02.755Z,1017.31
2019-02-12T04:02:02.684Z,1017.34
2019-02-12T04:03:02.722Z,1017.35
2019-02-12T04:04:02.795Z,1017.32
2019-02-12T04:05:02.792Z,1017.34
2019-02-12T04:06:02.788Z,1017.33
2019-02-12T04:07:02.736Z,1017.33
2019-02-12T04:08:02.774Z,1017.36
2019-02-12T04:09:02.797Z,1017.26
2019-02-12T04:10:02.777Z,1017.28
2019-02-12T04:11:02.775Z,1017.35
2019-02-12T04:12:02.840Z,1017.39
2019-02-12T04:13:02.767Z,1017.36
2019-02-12T04:14:02.773Z,1017.35
2019-02-12T04:15:02.786Z,1017.37
2019-02-12T04:16:02.766Z,1017.37
2019-02-12T04:17:02.774Z,1017.41
2019-02-12T04:18:02.797Z,1017.52
2019-02-12T04:19:02.775Z,1017.49
2019-02-12T04:20:02.821Z,1017.48
2019-02-12T04:21:02.836Z,1017.50
2019-02-12T04:22:02.836Z,1017.51
2019-02-12T04:23:02.829Z,1017.46
2019-02-12T04:24:02.828Z,1017.51
2019-02-12T04:25:02.753Z,1017.46
2019-02-12T04:26:02.831Z,1017.49
2019-02-12T04:27:02.830Z,1017.44
2019-02-12T04:28:02.759Z,1017.49
2019-02-12T04:29:02.762Z,1017.46
2019-02-12T04:30:02.771Z,1017.48
2019-02-12T04:31:02.755Z,1017.50
2019-02-12T04:32:02.771Z,1017.55
2019-02-12T04:33:02.757Z,1017.54
2019-02-12T04:34:02.762Z,1017.57
2019-02-12T04:35:02.839Z,1017.58
2019-02-12T04:36:02.831Z,1017.54
2019-02-12T04:37:02.838Z,1017.56
2019-02-12T04:38:02.749Z,1017.56
2019-02-12T04:39:02.764Z,1017.58
2019-02-12T04:40:02.852Z,1017.55
2019-02-12T04:41:02.838Z,1017.57
2019-02-12T04:42:02.866Z,1017.56
2019-02-12T04:43:02.856Z,1017.57
2019-02-12T04:44:02.808Z,1017.59
2019-02-12T04:45:02.797Z,1017.58
2019-02-12T04:46:02.783Z,1017.57
2019-02-12T04:47:02.867Z,1017.62
2019-02-12T04:48:02.869Z,1017.59
2019-02-12T04:49:02.785Z,1017.66
2019-02-12T04:50:02.790Z,1017.62
2019-02-12T04:51:02.855Z,1017.67
2019-02-12T04:52:02.786Z,1017.61
2019-02-12T04:53:02.829Z,1017.63
2019-02-12T04:54:02.809Z,1017.62
2019-02-12T04:55:02.788Z,1017.60
2019-02-12T04:56:02.859Z,1017.62
2019-02-12T04:57:02.867Z,1017.60
2019-02-12T04:58:02.828Z,1017.63
2019-02-12T04:59:02.863Z,1017.64
2019-02-12T05:00:02.868Z,1017.57
2019-02-12T05:01:02.798Z,1017.61
2019-02-12T05:02:02.877Z,1017.59
2019-02-12T05:03:02.793Z,1017.60
2019-02-12T05:04:02.867Z,1017.60
2019-02-12T05:05:02.803Z,1017.63
2019-02-12T05:06:02.803Z,1017.58
2019-02-12T05:07:02.815Z,1017.57
2019-02-12T05:08:02.859Z,1017.61
2019-02-12T05:09:02.797Z,1017.61
2019-02-12T05:10:02.798Z,1017.61
2019-02-12T05:11:02.815Z,1017.64
2019-02-12T05:12:02.864Z,1017.68
2019-02-12T05:13:02.783Z,1017.61
2019-02-12T05:14:02.832Z,1017.66
2019-02-12T05:15:02.792Z,1017.65
2019-02-12T05:16:02.873Z,1017.65
2019-02-12T05:17:02.864Z,1017.66
2019-02-12T05:18:02.866Z,1017.68
2019-02-12T05:19:02.798Z,1017.73
2019-02-12T05:20:02.873Z,1017.71
2019-02-12T05:21:02.867Z,1017.73
2019-02-12T05:22:02.881Z,1017.70
2019-02-12T05:23:02.889Z,1017.73
2019-02-12T05:24:02.813Z,1017.68
2019-02-12T05:25:02.812Z,1017.71
2019-02-12T05:26:02.811Z,1017.72
2019-02-12T05:27:02.898Z,1017.73
2019-02-12T05:28:02.809Z,1017.74
2019-02-12T05:29:02.829Z,1017.81
2019-02-12T05:30:02.810Z,1017.79
2019-02-12T05:31:02.893Z,1017.78
2019-02-12T05:32:02.793Z,1017.78
2019-02-12T05:33:02.883Z,1017.76
2019-02-12T05:34:02.808Z,1017.74
2019-02-12T05:35:02.801Z,1017.84
2019-02-12T05:36:02.879Z,1017.79
2019-02-12T05:37:02.880Z,1017.78
2019-02-12T05:38:02.795Z,1017.74
2019-02-12T05:39:02.884Z,1017.75
2019-02-12T05:40:02.884Z,1017.75
2019-02-12T05:41:02.889Z,1017.75
2019-02-12T05:42:02.902Z,1017.71
2019-02-12T05:43:02.845Z,1017.73
2019-02-12T05:44:02.912Z,1017.75
2019-02-12T05:45:02.898Z,1017.70
2019-02-12T05:46:02.788Z,1017.67
2019-02-12T05:47:02.901Z,1017.66
2019-02-12T05:48:02.823Z,1017.69
2019-02-12T05:49:02.904Z,1017.74
2019-02-12T05:50:02.839Z,1017.76
2019-02-12T05:51:02.831Z,1017.78
2019-02-12T05:52:02.905Z,1017.77
2019-02-12T05:53:02.909Z,1017.74
2019-02-12T05:54:02.920Z,1017.84
2019-02-12T05:55:02.930Z,1017.86
2019-02-12T05:56:02.831Z,1017.81
2019-02-12T05:57:02.904Z,1017.81
2019-02-12T05:58:02.902Z,1017.81
2019-02-12T05:59:02.902Z,1017.76
2019-02-12T06:00:02.906Z,1017.75
2019-02-12T06:01:02.923Z,1017.82
2019-02-12T06:02:02.807Z,1017.91
2019-02-12T06:03:02.914Z,1017.90
2019-02-12T06:04:02.836Z,1017.98
2019-02-12T06:05:02.921Z,1017.98
2019-02-12T06:06:02.909Z,1018.01
2019-02-12T06:07:02.848Z,1018.08
2019-02-12T06:08:02.845Z,1018.07
2019-02-12T06:09:02.911Z,1018.06
2019-02-12T06:10:02.841Z,1018.01
2019-02-12T06:11:02.913Z,1018.04
2019-02-12T06:12:02.925Z,1018.01
2019-02-12T06:13:02.906Z,1018.05
2019-02-12T06:14:02.815Z,1018.06
2019-02-12T06:15:02.832Z,1018.09
2019-02-12T06:16:02.973Z,1018.14
2019-02-12T06:17:02.818Z,1018.15
2019-02-12T06:19:02.919Z,1018.21
2019-02-12T06:20:02.843Z,1018.15
2019-02-12T06:21:02.910Z,1018.16
2019-02-12T06:22:02.845Z,1018.10
2019-02-12T06:23:04.164Z,1018.12
2019-02-12T06:24:02.855Z,1018.13
2019-02-12T06:25:02.854Z,1018.17
2019-02-12T06:26:02.902Z,1018.20
2019-02-12T06:27:02.851Z,1018.20
2019-02-12T06:28:02.814Z,1018.17
2019-02-12T06:29:02.951Z,1018.19
2019-02-12T06:30:02.924Z,1018.22
2019-02-12T06:31:02.868Z,1018.24
2019-02-12T06:32:02.907Z,1018.22
2019-02-12T06:33:07.523Z,1018.28
2019-02-12T06:34:02.841Z,1018.29
2019-02-12T06:35:02.901Z,1018.32
2019-02-12T06:36:02.866Z,1018.28
2019-02-12T06:37:02.819Z,1018.33
2019-02-12T06:38:02.913Z,1018.35
2019-02-12T06:39:02.908Z,1018.37
2019-02-12T06:40:02.863Z,1018.42
2019-02-12T06:41:02.856Z,1018.45
2019-02-12T06:42:02.917Z,1018.47
2019-02-12T06:43:02.835Z,1018.40
2019-02-12T06:44:02.803Z,1018.42
2019-02-12T06:45:02.927Z,1018.43
2019-02-12T06:46:02.924Z,1018.42
2019-02-12T06:47:02.916Z,1018.46
2019-02-12T06:48:02.835Z,1018.42
2019-02-12T06:49:02.923Z,1018.43
2019-02-12T06:50:02.832Z,1018.50
2019-02-12T06:51:02.944Z,1018.53
2019-02-12T06:52:02.859Z,1018.50
2019-02-12T06:53:11.877Z,1018.51
2019-02-12T06:54:02.931Z,1018.58
2019-02-12T06:55:02.955Z,1018.54
2019-02-12T06:56:02.936Z,1018.53
2019-02-12T06:57:02.879Z,1018.58
2019-02-12T06:58:02.934Z,1018.64
2019-02-12T06:59:02.846Z,1018.65
2019-02-12T07:00:02.938Z,1018.60
2019-02-12T07:01:02.849Z,1018.68
2019-02-12T07:02:02.941Z,1018.60
2019-02-12T07:03:02.850Z,1018.59
2019-02-12T07:04:02.852Z,1018.56
2019-02-12T07:05:02.866Z,1018.59
2019-02-12T07:06:02.944Z,1018.52
2019-02-12T07:07:02.874Z,1018.56
2019-02-12T07:08:02.940Z,1018.54
2019-02-12T07:09:02.841Z,1018.53
2019-02-12T07:10:02.942Z,1018.52
2019-02-12T07:11:02.938Z,1018.61
2019-02-12T07:12:02.895Z,1018.61
2019-02-12T07:13:03.393Z,1018.66
2019-02-12T07:14:02.886Z,1018.64
2019-02-12T07:15:02.883Z,1018.71
2019-02-12T07:16:02.956Z,1018.72
2019-02-12T07:17:02.892Z,1018.80
2019-02-12T07:18:02.884Z,1018.76
2019-02-12T07:19:02.962Z,1018.79
2019-02-12T07:20:02.960Z,1018.77
2019-02-12T07:21:02.895Z,1018.76
2019-02-12T07:22:02.957Z,1018.73
2019-02-12T07:23:02.967Z,1018.78
2019-02-12T07:24:02.876Z,1018.80
2019-02-12T07:25:02.957Z,1018.89
2019-02-12T07:26:02.944Z,1018.86
2019-02-12T07:27:02.962Z,1018.85
2019-02-12T07:28:02.913Z,1018.84
2019-02-12T07:29:02.966Z,1018.86
2019-02-12T07:30:02.964Z,1018.82
2019-02-12T07:31:02.912Z,1018.82
2019-02-12T07:32:03.020Z,1018.84
2019-02-12T07:33:02.959Z,1018.83
2019-02-12T07:34:02.974Z,1018.88
2019-02-12T07:35:02.870Z,1018.85
2019-02-12T07:36:02.975Z,1018.91
2019-02-12T07:37:02.973Z,1018.89
2019-02-12T07:38:02.958Z,1018.94
2019-02-12T07:39:02.962Z,1018.94
2019-02-12T07:40:02.928Z,1018.93
2019-02-12T07:41:02.980Z,1019.00
2019-02-12T07:42:02.876Z,1018.93
2019-02-12T07:43:02.892Z,1018.96
2019-02-12T07:44:02.877Z,1018.99
2019-02-12T07:45:02.978Z,1019.00
2019-02-12T07:46:02.988Z,1019.04
2019-02-12T07:47:02.894Z,1019.03
2019-02-12T07:48:02.859Z,1019.07
2019-02-12T07:49:02.895Z,1019.01
2019-02-12T07:50:02.908Z,1019.05
2019-02-12T07:51:02.903Z,1019.02
2019-02-12T07:52:02.841Z,1019.02
2019-02-12T07:53:02.844Z,1019.01
2019-02-12T07:54:02.963Z,1019.06
2019-02-12T07:55:02.955Z,1019.06
2019-02-12T07:56:02.968Z,1019.05
2019-02-12T07:57:02.877Z,1019.12
2019-02-12T07:58:02.880Z,1019.20
2019-02-12T07:59:02.916Z,1019.19
2019-02-12T08:00:02.936Z,1019.21
2019-02-12T08:01:02.846Z,1019.22
2019-02-12T08:02:02.917Z,1019.21
2019-02-12T08:03:02.921Z,1019.21
2019-02-12T08:04:02.852Z,1019.25
2019-02-12T08:05:02.972Z,1019.31
2019-02-12T08:06:02.878Z,1019.27
2019-02-12T08:07:02.985Z,1019.34
2019-02-12T08:08:02.927Z,1019.36
2019-02-12T08:09:02.894Z,1019.40
2019-02-12T08:10:02.992Z,1019.49
2019-02-12T08:11:02.886Z,1019.48
2019-02-12T08:12:02.911Z,1019.52
2019-02-12T08:13:02.941Z,1019.55
2019-02-12T08:14:02.868Z,1019.56
2019-02-12T08:15:02.852Z,1019.56
2019-02-12T08:16:02.956Z,1019.64
2019-02-12T08:17:02.969Z,1019.60
2019-02-12T08:18:02.853Z,1019.63
2019-02-12T08:19:02.947Z,1019.61
2019-02-12T08:20:02.950Z,1019.66
2019-02-12T08:21:02.852Z,1019.67
2019-02-12T08:22:03.019Z,1019.71
2019-02-12T08:23:02.935Z,1019.78
2019-02-12T08:24:02.936Z,1019.74
2019-02-12T08:25:03.017Z,1019.82
2019-02-12T08:26:02.998Z,1019.78
2019-02-12T08:27:02.955Z,1019.77
2019-02-12T08:28:03.032Z,1019.82
2019-02-12T08:29:03.012Z,1019.78
2019-02-12T08:30:02.937Z,1019.82
2019-02-12T08:31:02.944Z,1019.85
2019-02-12T08:32:03.017Z,1019.87
2019-02-12T08:33:02.909Z,1019.89
2019-02-12T08:34:02.941Z,1019.93
2019-02-12T08:35:02.991Z,1019.94
2019-02-12T08:36:02.958Z,1019.98
2019-02-12T08:37:02.994Z,1019.99
2019-02-12T08:38:02.978Z,1019.99
2019-02-12T08:39:02.894Z,1019.99
2019-02-12T08:40:02.959Z,1020.03
2019-02-12T08:41:02.997Z,1020.10
2019-02-12T08:42:02.989Z,1020.02
2019-02-12T08:43:02.874Z,1020.04
2019-02-12T08:44:02.861Z,1020.04
2019-02-12T08:45:02.887Z,1020.07
2019-02-12T08:46:02.923Z,1020.07
2019-02-12T08:47:02.970Z,1020.09
2019-02-12T08:48:02.889Z,1020.05
2019-02-12T08:49:02.924Z,1020.05
2019-02-12T08:50:03.073Z,1020.04
2019-02-12T08:51:02.938Z,1020.05
2019-02-12T08:52:02.972Z,1020.04
2019-02-12T08:53:02.929Z,1020.05
2019-02-12T08:54:02.890Z,1020.09
2019-02-12T08:55:02.954Z,1020.07
2019-02-12T08:56:02.894Z,1020.07
2019-02-12T08:57:03.008Z,1020.08
2019-02-12T08:58:02.985Z,1020.09
2019-02-12T08:59:02.887Z,1020.12
2019-02-12T09:00:03.622Z,1020.10
2019-02-12T09:01:03.023Z,1020.14
2019-02-12T09:02:02.893Z,1020.11
2019-02-12T09:03:02.961Z,1020.12
2019-02-12T09:04:02.960Z,1020.11
2019-02-12T09:05:02.960Z,1020.16
2019-02-12T09:06:04.013Z,1020.08
2019-02-12T09:07:02.967Z,1020.13
2019-02-12T09:08:03.036Z,1020.12
2019-02-12T09:09:02.965Z,1020.14
2019-02-12T09:10:03.036Z,1020.16
2019-02-12T09:11:02.969Z,1020.10
2019-02-12T09:12:03.034Z,1020.17
2019-02-12T09:13:02.969Z,1020.19
2019-02-12T09:14:03.044Z,1020.19
2019-02-12T09:15:03.062Z,1020.18
2019-02-12T09:16:03.005Z,1020.20
2019-02-12T09:17:02.936Z,1020.19
2019-02-12T09:18:02.972Z,1020.13
2019-02-12T09:19:02.968Z,1020.20
2019-02-12T09:20:03.045Z,1020.20
2019-02-12T09:21:03.041Z,1020.19
2019-02-12T09:22:03.106Z,1020.22
2019-02-12T09:23:02.980Z,1020.20
2019-02-12T09:24:03.554Z,1020.22
2019-02-12T09:25:02.984Z,1020.22
2019-02-12T09:26:02.985Z,1020.28
2019-02-12T09:27:03.056Z,1020.28
2019-02-12T09:28:02.980Z,1020.27
2019-02-12T09:29:03.046Z,1020.32
2019-02-12T09:30:02.981Z,1020.33
2019-02-12T09:31:03.051Z,1020.36
2019-02-12T09:32:02.984Z,1020.36
2019-02-12T09:33:03.049Z,1020.39
2019-02-12T09:34:02.978Z,1020.43
2019-02-12T09:35:03.055Z,1020.41
2019-02-12T09:36:03.023Z,1020.46
2019-02-12T09:37:03.073Z,1020.47
2019-02-12T09:38:03.053Z,1020.46
2019-02-12T09:39:02.990Z,1020.49
2019-02-12T09:40:03.135Z,1020.50
2019-02-12T09:41:03.063Z,1020.54
2019-02-12T09:42:03.065Z,1020.51
2019-02-12T09:43:02.995Z,1020.48
2019-02-12T09:44:03.058Z,1020.48
2019-02-12T09:45:02.998Z,1020.50
2019-02-12T09:46:02.949Z,1020.50
2019-02-12T09:47:03.019Z,1020.57
2019-02-12T09:48:02.992Z,1020.60
2019-02-12T09:49:02.997Z,1020.57
2019-02-12T09:50:03.074Z,1020.56
2019-02-12T09:51:02.994Z,1020.55
2019-02-12T09:52:03.064Z,1020.62
2019-02-12T09:53:02.998Z,1020.65
2019-02-12T09:54:08.660Z,1020.60
2019-02-12T09:55:03.018Z,1020.62
2019-02-12T09:56:03.065Z,1020.63
2019-02-12T09:57:03.000Z,1020.60
2019-02-12T09:58:03.023Z,1020.63
2019-02-12T09:59:03.066Z,1020.62
2019-02-12T10:00:03.000Z,1020.62
2019-02-12T10:01:03.031Z,1020.61
2019-02-12T10:02:03.070Z,1020.62
2019-02-12T10:03:02.999Z,1020.60
2019-02-12T10:04:03.083Z,1020.61
2019-02-12T10:05:03.002Z,1020.61
2019-02-12T10:06:03.075Z,1020.65
2019-02-12T10:07:03.027Z,1020.63
2019-02-12T10:08:03.077Z,1020.60
2019-02-12T10:09:03.017Z,1020.61
2019-02-12T10:10:03.083Z,1020.58
2019-02-12T10:11:03.006Z,1020.59
2019-02-12T10:12:03.076Z,1020.61
2019-02-12T10:13:03.035Z,1020.57
2019-02-12T10:14:03.063Z,1020.63
2019-02-12T10:15:03.063Z,1020.59
2019-02-12T10:16:03.010Z,1020.62
2019-02-12T10:17:03.056Z,1020.72
2019-02-12T10:18:03.015Z,1020.69
2019-02-12T10:19:03.030Z,1020.70
2019-02-12T10:20:02.939Z,1020.69
2019-02-12T10:21:03.060Z,1020.79
2019-02-12T10:22:02.977Z,1020.70
2019-02-12T10:23:03.006Z,1020.78
2019-02-12T10:24:03.034Z,1020.73
2019-02-12T10:25:02.942Z,1020.73
2019-02-12T10:26:03.061Z,1020.75
2019-02-12T10:27:03.036Z,1020.77
2019-02-12T10:28:03.054Z,1020.76
2019-02-12T10:29:02.982Z,1020.70
2019-02-12T10:30:03.037Z,1020.70
2019-02-12T10:31:02.947Z,1020.73
2019-02-12T10:32:08.719Z,1020.71
2019-02-12T10:33:03.092Z,1020.72
2019-02-12T10:34:03.094Z,1020.74
2019-02-12T10:35:03.026Z,1020.70
2019-02-12T10:36:03.032Z,1020.73
2019-02-12T10:37:03.092Z,1020.73
2019-02-12T10:38:03.050Z,1020.73
2019-02-12T10:39:03.098Z,1020.70
2019-02-12T10:40:03.024Z,1020.71
2019-02-12T10:41:03.105Z,1020.68
2019-02-12T10:42:03.027Z,1020.71
2019-02-12T10:43:03.102Z,1020.70
2019-02-12T10:44:03.033Z,1020.66
2019-02-12T10:45:02.997Z,1020.71
2019-02-12T10:46:03.111Z,1020.69
2019-02-12T10:47:03.102Z,1020.67
2019-02-12T10:48:03.034Z,1020.71
2019-02-12T10:49:02.994Z,1020.70
2019-02-12T10:50:03.032Z,1020.64
2019-02-12T10:51:03.118Z,1020.68
2019-02-12T10:52:03.038Z,1020.70
2019-02-12T10:53:03.045Z,1020.72
2019-02-12T10:54:03.112Z,1020.74
2019-02-12T10:55:03.040Z,1020.78
2019-02-12T10:56:04.632Z,1020.77
2019-02-12T10:57:03.110Z,1020.82
2019-02-12T10:58:03.042Z,1020.87
2019-02-12T10:59:03.124Z,1020.87
2019-02-12T11:00:03.110Z,1020.83
2019-02-12T11:01:03.132Z,1020.90
2019-02-12T11:02:03.124Z,1020.93
2019-02-12T11:03:03.050Z,1020.90
2019-02-12T11:04:03.062Z,1020.89
2019-02-12T11:05:03.016Z,1020.96
2019-02-12T11:06:03.134Z,1020.89
2019-02-12T11:07:03.008Z,1020.91
2019-02-12T11:08:03.108Z,1020.92
2019-02-12T11:09:02.994Z,1020.87
2019-02-12T11:10:03.121Z,1020.88
2019-02-12T11:11:03.035Z,1020.89
2019-02-12T11:12:03.039Z,1020.87
2019-02-12T11:13:03.006Z,1020.90
2019-02-12T11:14:03.106Z,1020.88
2019-02-12T11:15:03.080Z,1020.87
2019-02-12T11:16:03.115Z,1020.84
2019-02-12T11:17:03.119Z,1020.76
2019-02-12T11:18:03.066Z,1020.82
2019-02-12T11:19:03.028Z,1020.86
2019-02-12T11:20:03.117Z,1020.87
2019-02-12T11:21:03.051Z,1020.85
2019-02-12T11:22:03.058Z,1020.83
2019-02-12T11:23:03.127Z,1020.85
2019-02-12T11:24:03.134Z,1020.90
2019-02-12T11:25:03.061Z,1020.85
2019-02-12T11:26:03.060Z,1020.86
2019-02-12T11:27:03.138Z,1020.85
2019-02-12T11:28:03.138Z,1020.84
2019-02-12T11:29:03.061Z,1020.83
2019-02-12T11:30:03.061Z,1020.85
2019-02-12T11:31:03.064Z,1020.87
2019-02-12T11:32:03.064Z,1020.90
2019-02-12T11:33:03.117Z,1020.92
2019-02-12T11:34:03.115Z,1020.88
2019-02-12T11:35:03.059Z,1020.91
2019-02-12T11:36:03.060Z,1020.86
2019-02-12T11:37:03.073Z,1020.89
2019-02-12T11:38:03.092Z,1020.85
2019-02-12T11:39:03.032Z,1020.85
2019-02-12T11:40:03.001Z,1020.90
2019-02-12T11:41:03.040Z,1020.87
2019-02-12T11:42:03.131Z,1020.89
2019-02-12T11:43:03.043Z,1020.86
2019-02-12T11:44:03.128Z,1020.84
2019-02-12T11:45:03.136Z,1020.89
2019-02-12T11:46:03.939Z,1020.92
2019-02-12T11:47:03.048Z,1020.86
2019-02-12T11:48:03.086Z,1020.96
2019-02-12T11:49:03.030Z,1020.88
2019-02-12T11:50:03.142Z,1020.91
2019-02-12T11:51:03.083Z,1020.91
2019-02-12T11:52:03.036Z,1020.89
2019-02-12T11:53:03.099Z,1020.90
2019-02-12T11:54:03.108Z,1020.93
2019-02-12T11:55:03.052Z,1020.91
2019-02-12T11:56:03.111Z,1020.94
2019-02-12T11:57:03.040Z,1020.99
2019-02-12T11:58:03.146Z,1020.98
2019-02-12T11:59:03.084Z,1020.97
2019-02-12T12:00:03.133Z,1020.99
2019-02-12T12:01:03.117Z,1020.94
2019-02-12T12:02:03.044Z,1020.96
2019-02-12T12:03:03.045Z,1020.91
2019-02-12T12:04:03.018Z,1020.93
2019-02-12T12:05:03.080Z,1020.95
2019-02-12T12:06:03.142Z,1020.93